createdAt,value
2019-02-23T00:01:27.544Z,2.00
2019-02-23T00:03:57.636Z,1.80
2019-02-23T00:06:30.132Z,1.90
2019-02-23T00:09:04.745Z,1.80
2019-02-23T00:11:34.038Z,1.80
2019-02-23T00:14:04.120Z,1.70
2019-02-23T00:16:34.293Z,1.60
2019-02-23T00:19:04.383Z,1.60
2019-02-23T00:21:34.452Z,1.50
2019-02-23T00:24:04.542Z,1.50
2019-02-23T00:26:35.816Z,1.40
2019-02-23T00:29:06.273Z,1.30
2019-02-23T00:31:41.102Z,1.30
2019-02-23T00:34:10.942Z,1.30
2019-02-23T00:36:42.227Z,1.30
2019-02-23T00:39:13.254Z,1.30
2019-02-23T00:41:43.308Z,1.30
2019-02-23T00:44:16.617Z,1.20
2019-02-23T00:46:53.235Z,1.20
2019-02-23T00:49:19.892Z,1.10
2019-02-23T00:51:51.806Z,0.90
2019-02-23T00:54:27.644Z,0.90
2019-02-23T00:56:57.715Z,0.90
2019-02-23T00:59:35.465Z,0.80
2019-02-23T01:02:03.377Z,0.80
2019-02-23T01:04:33.548Z,0.80
2019-02-23T01:07:04.747Z,0.70
2019-02-23T01:09:34.761Z,0.70
2019-02-23T01:12:04.833Z,0.60
2019-02-23T01:14:34.913Z,0.60
2019-02-23T01:17:07.308Z,0.50
2019-02-23T01:19:47.333Z,0.50
2019-02-23T01:22:10.381Z,0.50
2019-02-23T01:24:40.456Z,0.40
2019-02-23T01:27:10.560Z,0.50
2019-02-23T01:29:40.573Z,0.40
2019-02-23T01:32:14.883Z,0.40
2019-02-23T01:34:44.981Z,0.30
2019-02-23T01:37:18.897Z,0.20
2019-02-23T01:39:51.093Z,0.10
2019-02-23T01:42:22.001Z,0.10
2019-02-23T01:44:55.345Z,0.10
2019-02-23T01:47:30.992Z,0.10
2019-02-23T01:50:02.079Z,0.10
2019-02-23T01:52:32.131Z,0.00
2019-02-23T01:55:03.518Z,0.00
2019-02-23T01:57:33.496Z,0.00
2019-02-23T02:00:06.883Z,0.00
2019-02-23T02:02:38.152Z,-0.10
2019-02-23T02:05:13.050Z,-0.10
2019-02-23T02:07:46.213Z,-0.30
2019-02-23T02:10:19.390Z,-0.30
2019-02-23T02:12:50.729Z,-0.40
2019-02-23T02:15:20.796Z,-0.30
2019-02-23T02:17:50.917Z,-0.40
2019-02-23T02:20:21.052Z,-0.40
2019-02-23T02:22:51.124Z,-0.50
2019-02-23T02:25:21.181Z,-0.50
2019-02-23T02:27:52.438Z,-0.50
2019-02-23T02:30:28.506Z,-0.60
2019-02-23T02:32:59.571Z,-0.60
2019-02-23T02:35:35.816Z,-0.60
2019-02-23T02:38:05.820Z,-0.70
2019-02-23T02:40:37.267Z,-0.80
2019-02-23T02:43:08.337Z,-0.80
2019-02-23T02:45:38.399Z,-0.80
2019-02-23T02:48:08.456Z,-0.90
2019-02-23T02:50:38.557Z,-0.90
2019-02-23T02:53:08.698Z,-0.90
2019-02-23T02:55:39.105Z,-0.90
2019-02-23T02:58:09.269Z,-0.90
2019-02-23T03:00:40.734Z,-0.90
2019-02-23T03:03:13.947Z,-1.00
2019-02-23T03:05:44.335Z,-1.00
2019-02-23T03:08:14.452Z,-1.10
2019-02-23T03:10:47.171Z,-1.10
2019-02-23T03:13:20.403Z,-1.10
2019-02-23T03:15:50.471Z,-1.10
2019-02-23T03:18:25.327Z,-1.10
2019-02-23T03:20:57.377Z,-1.10
2019-02-23T03:23:30.220Z,-1.10
2019-02-23T03:26:04.171Z,-1.10
2019-02-23T03:28:37.449Z,-1.20
2019-02-23T03:31:07.300Z,-1.20
2019-02-23T03:33:38.589Z,-1.20
2019-02-23T03:36:08.906Z,-1.30
2019-02-23T03:38:40.439Z,-1.30
2019-02-23T03:41:14.047Z,-1.20
2019-02-23T03:43:46.928Z,-1.30
2019-02-23T03:46:16.935Z,-1.30
2019-02-23T03:48:46.943Z,-1.30
2019-02-23T03:51:17.032Z,-1.40
2019-02-23T03:53:48.372Z,-1.30
2019-02-23T03:56:21.512Z,-1.40
2019-02-23T03:59:00.118Z,-1.50
2019-02-23T04:01:29.447Z,-1.60
2019-02-23T04:03:59.529Z,-1.70
2019-02-23T04:06:29.614Z,-1.70
2019-02-23T04:09:02.537Z,-1.60
2019-02-23T04:11:35.582Z,-1.70
2019-02-23T04:14:05.575Z,-1.60
2019-02-23T04:16:37.498Z,-1.70
2019-02-23T04:19:07.533Z,-1.70
2019-02-23T04:21:38.656Z,-1.70
2019-02-23T04:24:08.775Z,-1.70
2019-02-23T04:26:40.188Z,-1.70
2019-02-23T04:29:10.299Z,-1.70
2019-02-23T04:31:44.620Z,-1.80
2019-02-23T04:34:14.689Z,-1.80
2019-02-23T04:36:45.780Z,-1.80
2019-02-23T04:39:15.858Z,-1.90
2019-02-23T04:41:47.516Z,-1.90
2019-02-23T04:44:17.586Z,-1.90
2019-02-23T04:46:48.485Z,-1.80
2019-02-23T04:49:18.564Z,-1.90
2019-02-23T04:51:48.598Z,-1.90
2019-02-23T04:54:19.548Z,-1.90
2019-02-23T04:56:51.428Z,-1.90
2019-02-23T04:59:21.512Z,-1.90
2019-02-23T05:01:55.454Z,-2.10
2019-02-23T05:04:26.772Z,-2.10
2019-02-23T05:06:59.969Z,-2.10
2019-02-23T05:09:32.532Z,-2.10
2019-02-23T05:12:04.041Z,-2.00
2019-02-23T05:14:34.946Z,-2.20
2019-02-23T05:17:08.581Z,-2.10
2019-02-23T05:19:38.662Z,-2.10
2019-02-23T05:22:09.752Z,-2.10
2019-02-23T05:24:41.171Z,-2.20
2019-02-23T05:27:12.352Z,-2.20
2019-02-23T05:29:45.400Z,-2.30
2019-02-23T05:32:19.862Z,-2.20
2019-02-23T05:34:46.999Z,-2.30
2019-02-23T05:37:18.125Z,-2.40
2019-02-23T05:39:48.260Z,-2.30
2019-02-23T05:42:18.269Z,-2.30
2019-02-23T05:44:48.362Z,-2.20
2019-02-23T05:47:18.473Z,-2.30
2019-02-23T05:49:51.974Z,-2.30
2019-02-23T05:52:24.799Z,-2.30
2019-02-23T05:54:54.907Z,-2.30
2019-02-23T05:57:24.988Z,-2.40
2019-02-23T05:59:55.207Z,-2.50
2019-02-23T06:02:25.298Z,-2.40
2019-02-23T06:04:56.272Z,-2.40
2019-02-23T06:07:29.531Z,-2.40
2019-02-23T06:10:00.771Z,-2.40
2019-02-23T06:12:30.847Z,-2.40
2019-02-23T06:15:02.678Z,-2.30
2019-02-23T06:17:36.089Z,-2.40
2019-02-23T06:20:06.312Z,-2.30
2019-02-23T06:22:36.473Z,-2.30
2019-02-23T06:25:11.551Z,-2.20
2019-02-23T06:27:41.708Z,-2.30
2019-02-23T06:30:13.425Z,-2.20
2019-02-23T06:32:44.641Z,-2.10
2019-02-23T06:35:17.846Z,-2.00
2019-02-23T06:37:49.077Z,-1.90
2019-02-23T06:40:19.132Z,-1.90
2019-02-23T06:42:49.158Z,-1.90
2019-02-23T06:45:19.238Z,-1.80
2019-02-23T06:47:50.413Z,-1.70
2019-02-23T06:50:23.091Z,-1.70
2019-02-23T06:52:54.205Z,-1.10
2019-02-23T06:55:25.473Z,0.60
2019-02-23T06:57:59.025Z,1.60
2019-02-23T07:00:29.280Z,1.90
2019-02-23T07:02:59.367Z,1.80
2019-02-23T07:05:31.118Z,1.60
2019-02-23T07:08:01.180Z,1.50
2019-02-23T07:10:31.284Z,1.50
2019-02-23T07:13:02.626Z,2.00
2019-02-23T07:15:32.752Z,1.90
2019-02-23T07:18:03.933Z,1.90
2019-02-23T07:20:43.879Z,3.20
2019-02-23T07:23:07.686Z,4.60
2019-02-23T07:25:38.805Z,5.10
2019-02-23T07:28:10.981Z,4.80
2019-02-23T07:30:42.437Z,6.20
2019-02-23T07:33:12.997Z,6.40
2019-02-23T07:35:44.825Z,6.60
2019-02-23T07:38:14.958Z,6.40
2019-02-23T07:40:45.127Z,7.00
2019-02-23T07:43:24.228Z,8.50
2019-02-23T07:45:55.127Z,9.30
2019-02-23T07:48:25.171Z,9.60
2019-02-23T07:50:55.332Z,9.80
2019-02-23T07:53:28.286Z,10.10
2019-02-23T07:55:58.394Z,10.30
2019-02-23T07:58:28.576Z,10.10
2019-02-23T08:00:58.772Z,10.60
2019-02-23T08:03:31.789Z,10.70
2019-02-23T08:06:01.825Z,10.00
2019-02-23T08:08:31.982Z,10.30
2019-02-23T08:11:02.089Z,9.70
2019-02-23T08:13:32.201Z,10.70
2019-02-23T08:16:02.327Z,11.00
2019-02-23T08:18:33.995Z,11.20
2019-02-23T08:21:05.233Z,12.20
2019-02-23T08:23:35.328Z,10.90
2019-02-23T08:26:06.555Z,10.70
2019-02-23T08:28:39.509Z,11.50
2019-02-23T08:31:13.217Z,10.70
2019-02-23T08:33:43.731Z,10.80
2019-02-23T08:36:17.283Z,9.40
2019-02-23T08:38:48.191Z,10.60
2019-02-23T08:41:20.410Z,9.30
2019-02-23T08:43:53.899Z,7.60
2019-02-23T08:46:28.902Z,7.60
2019-02-23T08:49:00.121Z,9.20
2019-02-23T08:51:30.987Z,8.80
2019-02-23T08:54:01.080Z,9.80
2019-02-23T08:56:31.251Z,8.10
2019-02-23T08:59:01.703Z,6.50
2019-02-23T09:01:34.778Z,7.10
2019-02-23T09:04:07.273Z,8.30
2019-02-23T09:06:39.364Z,8.70
2019-02-23T09:09:12.357Z,9.90
2019-02-23T09:11:42.233Z,9.80
2019-02-23T09:14:14.128Z,7.60
2019-02-23T09:16:44.158Z,7.60
2019-02-23T09:19:24.077Z,8.20
2019-02-23T09:21:54.199Z,8.50
2019-02-23T09:24:24.285Z,9.10
2019-02-23T09:26:58.325Z,8.80
2019-02-23T09:29:29.385Z,8.70
2019-02-23T09:31:59.462Z,10.10
2019-02-23T09:34:29.586Z,10.70
2019-02-23T09:37:05.600Z,10.70
2019-02-23T09:39:40.913Z,10.40
2019-02-23T09:42:14.652Z,10.10
2019-02-23T09:44:44.481Z,9.60
2019-02-23T09:47:15.785Z,9.50
2019-02-23T09:49:45.928Z,9.50
2019-02-23T09:52:16.048Z,10.80
2019-02-23T09:54:49.465Z,9.70
2019-02-23T09:57:19.524Z,8.90
2019-02-23T09:59:51.128Z,8.70
2019-02-23T10:02:21.205Z,9.70
2019-02-23T10:04:54.272Z,11.90
2019-02-23T10:07:24.358Z,13.80
2019-02-23T10:09:54.428Z,12.80
2019-02-23T10:12:24.484Z,13.10
2019-02-23T10:14:54.579Z,11.70
2019-02-23T10:17:24.606Z,11.40
2019-02-23T10:19:55.889Z,11.70
2019-02-23T10:22:27.208Z,12.70
2019-02-23T10:24:57.213Z,14.50
2019-02-23T10:27:27.312Z,15.10
2019-02-23T10:29:57.346Z,14.60
2019-02-23T10:32:27.367Z,15.20
2019-02-23T10:34:57.436Z,15.10
2019-02-23T10:37:27.448Z,12.90
2019-02-23T10:39:57.522Z,12.60
2019-02-23T10:42:27.556Z,12.10
2019-02-23T10:44:57.564Z,13.10
2019-02-23T10:47:27.569Z,13.20
2019-02-23T10:49:57.592Z,11.80
2019-02-23T10:52:27.677Z,12.60
2019-02-23T10:54:57.888Z,12.80
2019-02-23T10:57:29.630Z,12.90
2019-02-23T11:00:04.059Z,13.30
2019-02-23T11:02:34.135Z,13.20
2019-02-23T11:05:07.356Z,12.20
2019-02-23T11:07:37.345Z,12.50
2019-02-23T11:10:07.574Z,12.60
2019-02-23T11:12:44.227Z,13.20
2019-02-23T11:15:17.494Z,13.10
2019-02-23T11:17:47.721Z,12.20
2019-02-23T11:20:18.682Z,12.00
2019-02-23T11:22:48.759Z,9.70
2019-02-23T11:25:18.761Z,7.20
2019-02-23T11:27:48.879Z,5.90
2019-02-23T11:30:19.112Z,5.40
2019-02-23T11:32:49.174Z,5.30
2019-02-23T11:35:19.291Z,5.00
2019-02-23T11:37:49.301Z,4.40
2019-02-23T11:40:19.361Z,4.30
2019-02-23T11:42:49.605Z,4.20
2019-02-23T11:45:19.682Z,3.70
2019-02-23T11:47:49.697Z,3.70
2019-02-23T11:50:19.691Z,3.80
2019-02-23T11:52:49.713Z,3.90
2019-02-23T11:55:21.694Z,3.90
2019-02-23T11:57:51.720Z,4.00
2019-02-23T12:00:21.722Z,3.90
2019-02-23T12:02:53.530Z,4.00
2019-02-23T12:05:23.784Z,4.10
2019-02-23T12:07:53.918Z,4.10
2019-02-23T12:10:23.909Z,4.10
2019-02-23T12:12:54.000Z,4.00
2019-02-23T12:15:24.090Z,4.00
2019-02-23T12:17:54.249Z,4.10
2019-02-23T12:20:24.366Z,4.00
2019-02-23T12:22:54.363Z,3.90
2019-02-23T12:25:24.384Z,3.90
2019-02-23T12:27:54.468Z,3.90
2019-02-23T12:30:26.230Z,4.20
2019-02-23T12:32:56.406Z,4.30
2019-02-23T12:35:26.466Z,4.00
2019-02-23T12:37:56.543Z,3.80
2019-02-23T12:40:26.543Z,3.90
2019-02-23T12:42:56.666Z,3.80
2019-02-23T12:45:28.384Z,4.00
2019-02-23T12:48:00.004Z,3.90
2019-02-23T12:50:30.066Z,3.90
2019-02-23T12:53:03.885Z,3.90
2019-02-23T12:55:34.685Z,3.90
2019-02-23T12:58:05.975Z,4.00
2019-02-23T13:00:40.071Z,4.00
2019-02-23T13:03:12.873Z,4.10
2019-02-23T13:05:44.125Z,4.10
2019-02-23T13:08:14.301Z,4.00
2019-02-23T13:10:46.478Z,3.80
2019-02-23T13:13:47.497Z,3.80
2019-02-23T13:16:30.528Z,3.90
2019-02-23T13:19:40.301Z,3.90
2019-02-23T13:22:21.325Z,3.90
2019-02-23T13:25:30.829Z,3.90
2019-02-23T13:28:46.191Z,3.90
2019-02-23T13:31:42.273Z,4.10
2019-02-23T13:35:03.714Z,4.10
2019-02-23T13:38:18.033Z,4.00
2019-02-23T13:41:22.449Z,3.90
2019-02-23T13:44:40.824Z,4.00
2019-02-23T13:47:43.820Z,3.90
2019-02-23T13:50:35.661Z,3.90
2019-02-23T13:53:47.380Z,3.80
2019-02-23T13:56:41.854Z,3.80
2019-02-23T13:59:37.728Z,3.80
2019-02-23T14:02:25.146Z,3.90
2019-02-23T14:05:29.920Z,3.80
2019-02-23T14:08:30.723Z,3.70
2019-02-23T14:11:33.489Z,3.70
2019-02-23T14:14:27.649Z,3.90
2019-02-23T14:17:27.654Z,4.00
2019-02-23T14:20:37.398Z,3.70
2019-02-23T14:23:38.442Z,3.60
2019-02-23T14:26:57.574Z,3.50
2019-02-23T14:30:11.625Z,3.60
2019-02-23T14:33:23.977Z,3.60
2019-02-23T14:36:19.384Z,3.60
2019-02-23T14:39:24.500Z,3.60
2019-02-23T14:42:23.074Z,3.60
2019-02-23T14:45:36.963Z,3.70
2019-02-23T14:48:44.116Z,3.70
2019-02-23T14:51:40.070Z,3.50
2019-02-23T14:54:25.480Z,3.50
2019-02-23T14:57:52.100Z,3.40
2019-02-23T15:00:44.033Z,3.50
2019-02-23T15:03:56.468Z,3.50
2019-02-23T15:07:06.485Z,3.40
2019-02-23T15:10:05.406Z,3.40
2019-02-23T15:12:59.443Z,3.40
2019-02-23T15:15:51.149Z,3.30
2019-02-23T15:19:10.248Z,3.20
2019-02-23T15:22:39.705Z,3.20
2019-02-23T15:25:49.242Z,3.00
2019-02-23T15:28:40.377Z,3.00
2019-02-23T15:31:25.860Z,2.90
2019-02-23T15:34:23.508Z,2.80
2019-02-23T15:37:22.163Z,2.90
2019-02-23T15:40:04.585Z,2.80
2019-02-23T15:43:04.976Z,2.60
2019-02-23T15:46:13.379Z,2.60
2019-02-23T15:49:26.756Z,2.50
2019-02-23T15:51:57.147Z,2.40
2019-02-23T15:54:29.255Z,2.30
2019-02-23T15:56:59.440Z,2.30
2019-02-23T15:59:30.720Z,2.20
2019-02-23T16:02:00.938Z,2.20
2019-02-23T16:04:31.222Z,2.10
2019-02-23T16:07:01.346Z,2.00
2019-02-23T16:09:34.552Z,1.90
2019-02-23T16:12:06.030Z,1.90
2019-02-23T16:14:37.363Z,1.80
2019-02-23T16:17:09.918Z,1.70
2019-02-23T16:19:41.756Z,1.70
2019-02-23T16:22:11.450Z,1.60
2019-02-23T16:24:41.650Z,1.60
2019-02-23T16:27:11.961Z,1.60
2019-02-23T16:29:44.251Z,1.50
2019-02-23T16:32:14.397Z,1.40
2019-02-23T16:34:44.600Z,1.40
2019-02-23T16:37:14.735Z,1.30
2019-02-23T16:39:46.021Z,1.30
2019-02-23T16:42:16.314Z,1.30
2019-02-23T16:44:46.516Z,1.30
2019-02-23T16:47:16.742Z,1.20
2019-02-23T16:49:49.178Z,1.10
2019-02-23T16:52:19.411Z,1.00
2019-02-23T16:54:49.647Z,1.00
2019-02-23T16:57:19.892Z,0.90
2019-02-23T16:59:50.084Z,0.80
2019-02-23T17:02:20.216Z,0.70
2019-02-23T17:04:53.609Z,0.70
2019-02-23T17:07:22.307Z,0.70
2019-02-23T17:09:52.744Z,0.60
2019-02-23T17:12:22.878Z,0.60
2019-02-23T17:14:53.019Z,0.60
2019-02-23T17:17:23.194Z,0.60
2019-02-23T17:19:53.434Z,0.50
2019-02-23T17:22:23.612Z,0.50
2019-02-23T17:24:53.736Z,0.40
2019-02-23T17:27:35.500Z,0.40
2019-02-23T17:29:55.679Z,0.40
2019-02-23T17:32:25.997Z,0.30
2019-02-23T17:34:57.135Z,0.20
2019-02-23T17:37:29.790Z,0.20
2019-02-23T17:39:59.080Z,0.10
2019-02-23T17:42:29.201Z,0.10
2019-02-23T17:44:59.327Z,0.10
2019-02-23T17:47:29.478Z,0.10
2019-02-23T17:49:59.699Z,0.10
2019-02-23T17:52:29.823Z,0.10
2019-02-23T17:55:00.137Z,0.00
2019-02-23T17:57:30.301Z,0.00
2019-02-23T18:00:03.405Z,0.00
2019-02-23T18:02:33.533Z,0.00
2019-02-23T18:05:03.713Z,-0.10
2019-02-23T18:07:33.934Z,-0.10
2019-02-23T18:10:04.019Z,-0.10
2019-02-23T18:12:34.216Z,-0.10
2019-02-23T18:15:04.832Z,-0.20
2019-02-23T18:17:34.978Z,-0.20
2019-02-23T18:20:05.829Z,-0.20
2019-02-23T18:22:35.965Z,-0.30
2019-02-23T18:25:06.209Z,-0.40
2019-02-23T18:27:36.438Z,-0.40
2019-02-23T18:30:12.345Z,-0.30
2019-02-23T18:32:39.529Z,-0.30
2019-02-23T18:35:10.230Z,-0.30
2019-02-23T18:37:40.465Z,-0.30
2019-02-23T18:40:10.789Z,-0.40
2019-02-23T18:42:40.995Z,-0.50
2019-02-23T18:45:11.208Z,-0.60
2019-02-23T18:47:41.432Z,-0.70
2019-02-23T18:50:13.549Z,-0.60
2019-02-23T18:52:43.771Z,-0.60
2019-02-23T18:55:13.978Z,-0.50
2019-02-23T18:57:44.320Z,-0.50
2019-02-23T19:00:14.694Z,-0.60
2019-02-23T19:02:47.094Z,-0.60
2019-02-23T19:05:17.298Z,-0.70
2019-02-23T19:07:48.104Z,-0.60
2019-02-23T19:10:18.396Z,-0.70
2019-02-23T19:12:48.664Z,-0.70
2019-02-23T19:15:20.665Z,-0.80
2019-02-23T19:17:50.864Z,-0.80
2019-02-23T19:20:21.143Z,-0.80
2019-02-23T19:22:51.463Z,-1.00
2019-02-23T19:25:21.658Z,-1.00
2019-02-23T19:27:51.854Z,-1.10
2019-02-23T19:30:22.205Z,-1.00
2019-02-23T19:32:52.506Z,-0.90
2019-02-23T19:35:22.946Z,-1.00
2019-02-23T19:37:53.266Z,-1.10
2019-02-23T19:40:26.226Z,-1.10
2019-02-23T19:42:58.585Z,-1.10
2019-02-23T19:45:28.863Z,-1.00
2019-02-23T19:48:00.698Z,-0.90
2019-02-23T19:50:34.526Z,-0.90
2019-02-23T19:53:06.451Z,-0.90
2019-02-23T19:55:36.978Z,-0.90
2019-02-23T19:58:07.591Z,-1.00
2019-02-23T20:00:37.872Z,-0.90
2019-02-23T20:03:08.544Z,-0.90
2019-02-23T20:05:38.721Z,-0.90
2019-02-23T20:08:09.007Z,-0.90
2019-02-23T20:10:39.508Z,-0.90
2019-02-23T20:13:09.815Z,-0.90
2019-02-23T20:15:40.391Z,-1.00
2019-02-23T20:18:10.663Z,-1.00
2019-02-23T20:20:40.922Z,-1.10
2019-02-23T20:23:11.218Z,-1.10
2019-02-23T20:25:41.467Z,-1.10
2019-02-23T20:28:11.783Z,-1.00
2019-02-23T20:30:45.147Z,-1.10
2019-02-23T20:33:15.510Z,-1.20
2019-02-23T20:35:49.273Z,-1.20
2019-02-23T20:38:20.885Z,-1.30
2019-02-23T20:40:51.168Z,-1.30
2019-02-23T20:43:21.471Z,-1.40
2019-02-23T20:45:56.529Z,-1.40
2019-02-23T20:48:28.965Z,-1.40
2019-02-23T20:51:01.057Z,-1.50
2019-02-23T20:53:31.367Z,-1.50
2019-02-23T20:56:03.724Z,-1.50
2019-02-23T20:58:37.593Z,-1.50
2019-02-23T21:01:08.695Z,-1.50
2019-02-23T21:03:38.954Z,-1.50
2019-02-23T21:06:12.944Z,-1.60
2019-02-23T21:08:43.198Z,-1.60
2019-02-23T21:11:13.462Z,-1.60
2019-02-23T21:13:51.728Z,-1.60
2019-02-23T21:16:25.049Z,-1.60
2019-02-23T21:18:56.518Z,-1.70
2019-02-23T21:21:32.060Z,-1.80
2019-02-23T21:24:04.239Z,-1.80
2019-02-23T21:26:39.938Z,-1.70
2019-02-23T21:29:16.190Z,-1.80
2019-02-23T21:31:47.989Z,-1.80
2019-02-23T21:34:19.772Z,-1.80
2019-02-23T21:36:52.317Z,-1.80
2019-02-23T21:39:22.462Z,-1.80
2019-02-23T21:41:53.579Z,-1.90
2019-02-23T21:44:23.727Z,-1.90
2019-02-23T21:46:53.890Z,-1.80
2019-02-23T21:49:28.747Z,-1.80
2019-02-23T21:52:02.702Z,-1.80
2019-02-23T21:54:35.686Z,-1.80
2019-02-23T21:57:09.028Z,-1.80
2019-02-23T21:59:41.999Z,-1.80
2019-02-23T22:02:14.524Z,-1.80
2019-02-23T22:04:45.981Z,-1.70
2019-02-23T22:07:18.944Z,-1.80
2019-02-23T22:09:52.059Z,-1.80
2019-02-23T22:12:28.179Z,-1.80
2019-02-23T22:15:00.360Z,-1.80
2019-02-23T22:17:30.244Z,-1.90
2019-02-23T22:20:04.003Z,-1.80
2019-02-23T22:22:35.933Z,-1.80
2019-02-23T22:25:06.250Z,-1.80
2019-02-23T22:27:36.503Z,-1.80
2019-02-23T22:30:09.620Z,-1.80
2019-02-23T22:32:41.089Z,-1.90
2019-02-23T22:35:13.959Z,-1.90
2019-02-23T22:37:44.163Z,-2.00
2019-02-23T22:40:16.312Z,-2.00
2019-02-23T22:42:49.079Z,-2.10
2019-02-23T22:45:20.787Z,-2.10
2019-02-23T22:47:54.172Z,-2.00
2019-02-23T22:50:28.513Z,-2.00
2019-02-23T22:53:00.554Z,-1.90
2019-02-23T22:55:30.652Z,-1.80
2019-02-23T22:58:05.665Z,-1.70
2019-02-23T23:00:51.805Z,-1.70
2019-02-23T23:03:22.170Z,-1.70
2019-02-23T23:05:52.320Z,-1.70
2019-02-23T23:08:23.576Z,-1.80
2019-02-23T23:10:53.692Z,-1.80
2019-02-23T23:13:27.218Z,-1.80
2019-02-23T23:15:56.637Z,-1.80
2019-02-23T23:18:26.794Z,-1.90
2019-02-23T23:20:56.872Z,-2.00
2019-02-23T23:23:27.756Z,-2.10
2019-02-23T23:25:58.865Z,-2.10
2019-02-23T23:28:28.940Z,-2.10
2019-02-23T23:30:58.956Z,-2.20
2019-02-23T23:33:30.755Z,-2.30
2019-02-23T23:36:01.252Z,-2.20
2019-02-23T23:38:32.499Z,-2.30
2019-02-23T23:41:04.275Z,-2.40
2019-02-23T23:43:35.640Z,-2.40
2019-02-23T23:46:07.671Z,-2.40
2019-02-23T23:48:37.489Z,-2.30
2019-02-23T23:51:09.319Z,-2.40
2019-02-23T23:53:39.429Z,-2.40
2019-02-23T23:56:11.257Z,-2.40
2019-02-23T23:58:41.260Z,-2.40
